MTS Vanquish — 2HFK5 — position and weather

sailwx.info

Track history (hours):
 
Tides and Currents Weather Stations Pressure Air Temp Water Temp Dewpoint Dewpoint Depression Visibility Wind Speed Wind Dir Waves Ship Positions

MTS Vanquish

Last reported at 2018-Jun-23 07:26 UTC. Time now 2018-Jun-23 10:22 UTC.
Position N 51°53' E 002°47'.

Length 29 m; draft 4.7 m.

Type: Towing. MMSI: 235103213.

Date/timePositionNaut miles runAvg speedWind from/ knotsBaromVisibWave heightAir tempDewpointWater temp
2018-Jun-23 07:26N 51°53' E 002°47'2 4.0
2018-Jun-23 06:54N 51°52' E 002°45'1 3.6
2018-Jun-23 06:29N 51°51' E 002°43'2 3.4
2018-Jun-23 06:00N 51°49' E 002°42'3 3.1
2018-Jun-23 05:09N 51°47' E 002°39'1 3.1
2018-Jun-23 04:59N 51°47' E 002°38'2 3.0
2018-Jun-23 04:27N 51°45' E 002°37'1 2.9
2018-Jun-23 04:00N 51°44' E 002°35'2 3.1
2018-Jun-23 03:29N 51°43' E 002°34'2 3.3
2018-Jun-23 03:00N 51°42' E 002°32'2 3.7
2018-Jun-23 02:21N 51°40' E 002°29'2 4.1
2018-Jun-23 01:58N 51°39' E 002°28'3 4.3
2018-Jun-23 01:23N 51°37' E 002°25'2 4.6
2018-Jun-23 01:00N 51°36' E 002°23'2 4.6
2018-Jun-23 00:30N 51°34' E 002°21'3 4.9
2018-Jun-22 23:57N 51°32' E 002°18'2 5.2
2018-Jun-22 23:28N 51°30' E 002°16'3 5.5
2018-Jun-22 23:00N 51°28' E 002°13'3 5.5
2018-Jun-22 22:30N 51°26' E 002°10'3 5.4
2018-Jun-22 22:00N 51°23' E 002°09'3 5.5
2018-Jun-22 21:30N 51°21' E 002°07'3 5.3
2018-Jun-22 21:00N 51°18' E 002°06'3 5.3
2018-Jun-22 20:30N 51°16' E 002°05'3 5.4
2018-Jun-22 20:00N 51°14' E 002°02'3 5.5
2018-Jun-22 19:30N 51°12' E 001°58'3 5.2
2018-Jun-22 19:00N 51°11' E 001°55'2 4.9
2018-Jun-22 18:30N 51°10' E 001°51'2 4.6
2018-Jun-22 18:00N 51°09' E 001°48'2 4.1
2018-Jun-22 17:30N 51°08' E 001°45'2 3.4
2018-Jun-22 17:00N 51°07' E 001°43'2 3.3
2018-Jun-22 16:30N 51°07' E 001°40'2 3.7
2018-Jun-22 16:00N 51°08' E 001°38'2 3.2
2018-Jun-22 15:30N 51°09' E 001°35'1 2.1
2018-Jun-22 15:00N 51°09' E 001°34'1 1.4
2018-Jun-22 14:30N 51°09' E 001°33'1 1.4
2018-Jun-22 14:00N 51°08' E 001°32'1 2.3
2018-Jun-22 13:30N 51°08' E 001°30'1 2.7
2018-Jun-22 13:00N 51°08' E 001°28'2 3.0
2018-Jun-22 12:30N 51°07' E 001°26'2 3.2
2018-Jun-22 12:00N 51°06' E 001°23'2 3.4
2018-Jun-22 11:30N 51°06' E 001°21'1 2.4
2018-Jun-22 11:00N 51°07' E 001°19'0 0.0
2018-Jun-22 10:23N 51°07' E 001°19'0 0.0
2018-Jun-22 09:59N 51°07' E 001°19'0 0.0
2018-Jun-22 09:29N 51°07' E 001°19'0 0.0
2018-Jun-22 08:59N 51°07' E 001°19'0 0.0
2018-Jun-22 08:29N 51°07' E 001°19'0 0.0
2018-Jun-22 07:59N 51°07' E 001°19'0 0.0
2018-Jun-22 07:29N 51°07' E 001°19'0 0.0
2018-Jun-22 06:55N 51°07' E 001°19'0 0.0
2018-Jun-22 06:25N 51°07' E 001°19'0 0.0
2018-Jun-22 05:58N 51°07' E 001°19'0 0.0
2018-Jun-22 05:25N 51°07' E 001°19'0 0.0
2018-Jun-22 04:55N 51°07' E 001°19'0 0.0
2018-Jun-22 04:28N 51°07' E 001°19'0 0.0
2018-Jun-22 03:52N 51°07' E 001°19'0 0.0
2018-Jun-22 03:28N 51°07' E 001°19'0 0.0
2018-Jun-22 02:55N 51°07' E 001°19'0 0.0
2018-Jun-22 02:25N 51°07' E 001°19'0 0.0
2018-Jun-22 01:55N 51°07' E 001°19'0 0.0
2018-Jun-22 01:19N 51°07' E 001°19'0 0.0
2018-Jun-22 00:55N 51°07' E 001°19'0 0.0
2018-Jun-22 00:25N 51°07' E 001°19'0 0.0
2018-Jun-21 23:49N 51°07' E 001°19'0 0.0
2018-Jun-21 23:19N 51°07' E 001°19'0 0.0
2018-Jun-21 22:58N 51°07' E 001°19'0 0.0
2018-Jun-21 22:28N 51°07' E 001°19'0 0.0
2018-Jun-21 21:55N 51°07' E 001°19'0 0.0
2018-Jun-21 21:19N 51°07' E 001°19'0 0.0
2018-Jun-21 20:49N 51°07' E 001°19'0 0.0
2018-Jun-21 20:25N 51°07' E 001°19'0 0.0
2018-Jun-21 19:55N 51°07' E 001°19'0 0.0
2018-Jun-21 19:25N 51°07' E 001°19'0 0.0
2018-Jun-21 18:55N 51°07' E 001°19'0 0.0
2018-Jun-21 18:25N 51°07' E 001°19'0 0.0
2018-Jun-21 17:55N 51°07' E 001°19'0 0.0
2018-Jun-21 17:25N 51°07' E 001°19'0 0.0
2018-Jun-21 16:49N 51°07' E 001°19'0 0.0
2018-Jun-21 16:25N 51°07' E 001°19'0 0.0
2018-Jun-21 15:58N 51°07' E 001°19'0 0.0
2018-Jun-21 15:25N 51°07' E 001°19'0 0.0
2018-Jun-21 14:37N 51°07' E 001°19'0 0.0
2018-Jun-21 14:28N 51°07' E 001°19'0 0.0
2018-Jun-21 13:58N 51°07' E 001°19'0 0.0
2018-Jun-21 13:25N 51°07' E 001°19'0 0.0
2018-Jun-21 12:58N 51°07' E 001°19'0 0.0
2018-Jun-21 12:25N 51°07' E 001°19'0 0.0
2018-Jun-21 11:55N 51°07' E 001°19'0 0.0
2018-Jun-21 11:19N 51°07' E 001°19'0 0.0
2018-Jun-21 10:58N 51°07' E 001°19'0 0.0
2018-Jun-21 10:28N 51°07' E 001°19'0 0.0
2018-Jun-21 09:49N 51°07' E 001°19'0 0.0
2018-Jun-21 09:19N 51°07' E 001°19'0 0.0
2018-Jun-21 08:43N 51°07' E 001°19'0 0.0
2018-Jun-21 08:25N 51°07' E 001°19'0 0.0
2018-Jun-21 07:58N 51°07' E 001°19'0 0.0
2018-Jun-21 07:25N 51°07' E 001°19'0 0.0
2018-Jun-21 06:49N 51°07' E 001°19'0 0.0
2018-Jun-21 06:25N 51°07' E 001°19'0 0.0
2018-Jun-21 05:43N 51°07' E 001°19'0 0.0
2018-Jun-21 05:25N 51°07' E 001°19'0 0.0
2018-Jun-21 04:55N 51°07' E 001°19'0 0.0
2018-Jun-21 04:28N 51°07' E 001°19'0 0.0
2018-Jun-21 03:40N 51°07' E 001°19'0 1.0
2018-Jun-21 03:25N 51°07' E 001°19'0 0.0
2018-Jun-21 02:58N 51°07' E 001°19'0 0.0
2018-Jun-21 02:28N 51°07' E 001°19'0 0.0
2018-Jun-21 01:55N 51°07' E 001°19'0 0.0
2018-Jun-21 01:28N 51°07' E 001°19'0 0.0
2018-Jun-21 00:55N 51°07' E 001°19'0 0.0
2018-Jun-21 00:28N 51°07' E 001°19'0 0.0
2018-Jun-20 23:49N 51°07' E 001°19'0 0.0
2018-Jun-20 23:25N 51°07' E 001°19'0 0.0
2018-Jun-20 22:55N 51°07' E 001°19'0 0.0
2018-Jun-20 22:25N 51°07' E 001°19'0 0.0
2018-Jun-20 21:49N 51°07' E 001°19'0 0.0
2018-Jun-20 21:23N 51°07' E 001°19'2 5.0
2018-Jun-20 20:56N 51°07' E 001°23'3 7.3
2018-Jun-20 20:30N 51°08' E 001°28'3 7.0
2018-Jun-20 20:00N 51°10' E 001°32'3 6.7
2018-Jun-20 19:30N 51°13' E 001°35'3 6.6
2018-Jun-20 19:00N 51°16' E 001°36'3 6.2
2018-Jun-20 18:30N 51°19' E 001°36'3 6.8
2018-Jun-20 18:00N 51°22' E 001°34'4 7.1
2018-Jun-20 17:30N 51°25' E 001°31'3 6.8
2018-Jun-20 17:00N 51°27' E 001°27'4 7.5
2018-Jun-20 16:30N 51°28' E 001°21'4 7.6
2018-Jun-20 16:00N 51°29' E 001°15'4 8.0
2018-Jun-20 15:30N 51°29' E 001°09'4 8.3
2018-Jun-20 15:00N 51°29' E 001°02'4 8.3
2018-Jun-20 14:30N 51°29' E 000°55'4 7.3
2018-Jun-20 14:00N 51°29' E 000°50'4 8.1
2018-Jun-20 13:30N 51°30' E 000°43'4 7.5
2018-Jun-20 13:00N 51°30' E 000°37'3 5.7
2018-Jun-20 12:30N 51°30' E 000°33'3 6.0
2018-Jun-20 12:00N 51°29' E 000°28'3 6.2
2018-Jun-20 11:31N 51°27' E 000°25'3 5.7
2018-Jun-20 11:00N 51°27' E 000°20'1 1.2
2018-Jun-20 10:30N 51°28' E 000°20'0 0.3
2018-Jun-20 10:00N 51°28' E 000°20'0 0.0
2018-Jun-20 09:30N 51°28' E 000°20'0 0.0
2018-Jun-20 09:00N 51°28' E 000°20'0 0.3
2018-Jun-20 08:30N 51°28' E 000°20'0 0.3
2018-Jun-20 08:00N 51°28' E 000°20'0 0.0
2018-Jun-20 07:31N 51°28' E 000°20'0 0.0
2018-Jun-20 07:00N 51°28' E 000°20'0 0.0
2018-Jun-20 06:30N 51°28' E 000°20'0 0.0
2018-Jun-20 06:00N 51°28' E 000°20'0 0.0
2018-Jun-20 05:30N 51°28' E 000°20'0 0.0
2018-Jun-20 05:00N 51°28' E 000°20'0 0.1
2018-Jun-20 04:30N 51°28' E 000°20'0 0.0
2018-Jun-20 04:00N 51°28' E 000°20'0 0.0
2018-Jun-20 03:30N 51°28' E 000°20'0 0.0
2018-Jun-20 03:00N 51°28' E 000°20'0 0.6
2018-Jun-20 02:30N 51°28' E 000°21'0 0.5
2018-Jun-20 02:00N 51°27' E 000°21'0 0.0
2018-Jun-20 01:31N 51°27' E 000°21'0 0.4
2018-Jun-20 01:00N 51°27' E 000°20'1 1.3
2018-Jun-20 00:30N 51°27' E 000°21'0 1.0
2018-Jun-20 00:00N 51°27' E 000°22'0 0.0
2018-Jun-19 23:30N 51°27' E 000°22'0 0.0
2018-Jun-19 23:00N 51°27' E 000°22'0 0.0
2018-Jun-19 22:30N 51°27' E 000°22'0 0.0
2018-Jun-19 22:00N 51°27' E 000°22'0 0.0
2018-Jun-19 21:30N 51°27' E 000°22'0 0.0
2018-Jun-19 21:01N 51°27' E 000°22'0 0.0
2018-Jun-19 20:30N 51°27' E 000°22'0 0.0
2018-Jun-19 20:00N 51°27' E 000°22'0 0.2
2018-Jun-19 19:30N 51°27' E 000°22'0 0.8
2018-Jun-19 19:00N 51°27' E 000°23'0 1.0
2018-Jun-19 18:30N 51°27' E 000°23'1 1.2
2018-Jun-19 18:00N 51°27' E 000°24'1 2.5
2018-Jun-19 17:31N 51°27' E 000°26'2 3.1
2018-Jun-19 17:00N 51°29' E 000°27'2 3.3
2018-Jun-19 16:30N 51°30' E 000°29'2 4.0
2018-Jun-19 16:00N 51°30' E 000°32'2 4.7
2018-Jun-19 15:30N 51°30' E 000°36'2 4.7
2018-Jun-19 15:00N 51°30' E 000°40'2 4.9
2018-Jun-19 14:30N 51°30' E 000°44'3 5.2
2018-Jun-19 14:00N 51°30' E 000°48'1 2.1
2018-Jun-19 13:30N 51°30' E 000°50'0 0.1
2018-Jun-19 13:00N 51°30' E 000°50'0 0.1
2018-Jun-19 12:30N 51°30' E 000°50'0 0.2
2018-Jun-19 12:00N 51°30' E 000°50'0 0.2
2018-Jun-19 11:30N 51°30' E 000°50'1 3.0
2018-Jun-19 11:01N 51°30' E 000°52'1 2.5
2018-Jun-19 10:30N 51°29' E 000°54'1 2.9
2018-Jun-19 10:00N 51°29' E 000°56'1 2.5
2018-Jun-19 09:30N 51°29' E 000°58'1 1.8
2018-Jun-19 09:00N 51°29' E 000°60'1 1.8
2018-Jun-19 08:30N 51°29' E 001°01'1 1.8
2018-Jun-19 08:00N 51°30' E 001°03'1 1.9
2018-Jun-19 07:30N 51°30' E 001°04'1 2.0
2018-Jun-19 07:00N 51°30' E 001°06'1 1.7
2018-Jun-19 06:30N 51°30' E 001°07'1 1.9
2018-Jun-19 06:00N 51°29' E 001°09'1 2.1
2018-Jun-19 05:30N 51°29' E 001°10'1 2.8
2018-Jun-19 05:00N 51°29' E 001°13'2 3.7
2018-Jun-19 04:30N 51°29' E 001°16'2 4.0
2018-Jun-19 04:00N 51°29' E 001°19'2 4.8
2018-Jun-19 03:31N 51°28' E 001°23'2 4.1
2018-Jun-19 03:00N 51°28' E 001°26'2 4.1
2018-Jun-19 02:30N 51°29' E 001°29'2 3.2
2018-Jun-19 02:00N 51°28' E 001°31'1 2.7
2018-Jun-19 01:30N 51°29' E 001°33'2 4.0
2018-Jun-19 01:00N 51°30' E 001°35'2 4.5
2018-Jun-19 00:30N 51°31' E 001°38'2 4.6
2018-Jun-19 00:00N 51°33' E 001°40'2 3.9
2018-Jun-18 23:30N 51°35' E 001°42'1 1.1
2018-Jun-18 23:00N 51°35' E 001°42'1 1.4
2018-Jun-18 22:30N 51°34' E 001°42'0 0.7
2018-Jun-18 22:00N 51°34' E 001°42'1 1.5
2018-Jun-18 21:30N 51°35' E 001°43'1 1.1
2018-Jun-18 21:01N 51°35' E 001°44'0 0.7
2018-Jun-18 20:30N 51°36' E 001°44'0 0.5
2018-Jun-18 20:01N 51°35' E 001°44'1 1.6
2018-Jun-18 19:30N 51°35' E 001°45'1 2.3
2018-Jun-18 19:00N 51°34' E 001°45'2 3.1
2018-Jun-18 18:31N 51°32' E 001°46'2 3.4
2018-Jun-18 18:00N 51°30' E 001°46'2 3.4
2018-Jun-18 17:30N 51°29' E 001°46'2 3.6
2018-Jun-18 17:00N 51°27' E 001°45'2 3.8
2018-Jun-18 16:30N 51°25' E 001°45'2 4.1
2018-Jun-18 16:00N 51°23' E 001°43'2 3.7
2018-Jun-18 15:31N 51°22' E 001°42'1 1.8
2018-Jun-18 15:00N 51°21' E 001°41'0 0.7
2018-Jun-18 14:30N 51°21' E 001°41'1 1.3
2018-Jun-18 14:01N 51°22' E 001°42'1 1.9
2018-Jun-18 13:30N 51°23' E 001°42'1 2.6
2018-Jun-18 13:00N 51°24' E 001°43'1 2.6
2018-Jun-18 12:30N 51°25' E 001°43'2 3.5
2018-Jun-18 12:00N 51°27' E 001°44'2 4.0
2018-Jun-18 11:30N 51°29' E 001°45'2 3.8
2018-Jun-18 11:00N 51°30' E 001°47'2 3.3
2018-Jun-18 10:30N 51°32' E 001°48'1 2.7
2018-Jun-18 10:00N 51°33' E 001°50'2 3.5
2018-Jun-18 09:30N 51°34' E 001°52'2 3.2
2018-Jun-18 09:00N 51°35' E 001°54'2 2.9
2018-Jun-18 08:29N 51°35' E 001°56'1 2.8
2018-Jun-18 07:59N 51°36' E 001°58'1 2.4
2018-Jun-18 07:30N 51°36' E 002°00'1 2.2
2018-Jun-18 06:57N 51°37' E 002°02'1 2.0
2018-Jun-18 06:28N 51°38' E 002°03'1 1.7
2018-Jun-18 05:57N 51°38' E 002°04'1 1.3
2018-Jun-18 05:29N 51°39' E 002°04'1 1.1
2018-Jun-18 04:59N 51°39' E 002°05'1 1.0
2018-Jun-18 04:29N 51°40' E 002°06'1 1.1
2018-Jun-18 04:00N 51°40' E 002°06'1 1.4
2018-Jun-18 03:29N 51°40' E 002°07'1 1.7
2018-Jun-18 02:59N 51°41' E 002°08'1 2.0
2018-Jun-18 02:30N 51°42' E 002°09'1 2.3
2018-Jun-18 01:58N 51°42' E 002°11'1 2.8
2018-Jun-18 01:29N 51°43' E 002°13'2 3.5
2018-Jun-18 01:00N 51°44' E 002°15'2 4.1
2018-Jun-18 00:25N 51°46' E 002°18'2 4.4
2018-Jun-17 23:52N 51°48' E 002°21'15 3.4
2018-Jun-17 19:31N 51°58' E 002°38'39 2.9
2018-Jun-17 06:04N 52°28' E 003°19'0 2.2
2018-Jun-17 05:59N 52°28' E 003°19'1 2.0
2018-Jun-17 05:29N 52°29' E 003°20'1 1.8
2018-Jun-17 04:58N 52°30' E 003°21'1 1.6
2018-Jun-17 04:28N 52°30' E 003°22'1 1.7
2018-Jun-17 03:49N 52°31' E 003°23'2 2.0
2018-Jun-17 03:01N 52°32' E 003°24'1 2.6
2018-Jun-17 02:44N 52°33' E 003°25'1 2.9
2018-Jun-17 02:17N 52°34' E 003°26'2 3.5
2018-Jun-17 01:40N 52°36' E 003°29'9 4.1
2018-Jun-16 23:29N 52°43' E 003°37'6 4.1
2018-Jun-16 21:54N 52°48' E 003°45'13 3.0
2018-Jun-16 17:34N 52°57' E 003°60'1 2.3
2018-Jun-16 17:04N 52°58' E 004°01'0 2.2
2018-Jun-16 16:56N 52°58' E 004°01'1 2.3
2018-Jun-16 16:27N 52°59' E 004°03'1 2.6
2018-Jun-16 16:00N 52°60' E 004°04'2 3.5
2018-Jun-16 15:29N 53°01' E 004°07'2 4.0
2018-Jun-16 15:00N 53°02' E 004°09'2 4.5
2018-Jun-16 14:30N 53°04' E 004°12'3 4.8
2018-Jun-16 13:57N 53°05' E 004°15'2 5.0
2018-Jun-16 13:30N 53°07' E 004°18'3 5.1
2018-Jun-16 13:00N 53°09' E 004°21'21 4.5
2018-Jun-16 08:16N 53°27' E 004°37'1 3.6
2018-Jun-16 07:57N 53°28' E 004°39'2 3.4
2018-Jun-16 07:31N 53°29' E 004°41'2 3.4
2018-Jun-16 07:00N 53°29' E 004°44'2 3.4
2018-Jun-16 06:22N 53°30' E 004°47'2 3.4
2018-Jun-16 05:50N 53°31' E 004°50'1 3.5
2018-Jun-16 05:30N 53°31' E 004°52'2 3.9
2018-Jun-16 05:00N 53°32' E 004°55'2 4.3
2018-Jun-16 04:30N 53°32' E 004°58'3 5.0
2018-Jun-16 04:00N 53°33' E 005°02'3 5.5
2018-Jun-16 03:30N 53°34' E 005°07'7 5.9
2018-Jun-16 02:15N 53°36' E 005°19'2 5.7
2018-Jun-16 01:57N 53°37' E 005°21'4 5.6
2018-Jun-16 01:18N 53°38' E 005°27'2 5.3
2018-Jun-16 00:53N 53°39' E 005°30'2 5.2
2018-Jun-16 00:30N 53°40' E 005°34'3 5.0
2018-Jun-15 23:54N 53°41' E 005°38'67 4.1
2018-Jun-15 07:24N 53°59' E 007°27'2 4.0
2018-Jun-15 07:00N 53°59' E 007°30'2 4.3
2018-Jun-15 06:29N 54°00' E 007°34'2 5.0
2018-Jun-15 06:00N 54°01' E 007°38'3 5.3
2018-Jun-15 05:30N 54°01' E 007°42'3 5.4
2018-Jun-15 05:00N 54°01' E 007°47'3 5.4
2018-Jun-15 04:27N 54°01' E 007°52'2 5.3
2018-Jun-15 04:00N 54°01' E 007°56'3 5.3
2018-Jun-15 03:30N 54°01' E 008°00'3 5.5
2018-Jun-15 03:00N 54°01' E 008°05'3 5.4
2018-Jun-15 02:27N 54°00' E 008°10'2 5.3
2018-Jun-15 02:00N 54°00' E 008°14'2 3.9
2018-Jun-15 01:30N 54°00' E 008°17'2 4.2
2018-Jun-15 01:00N 53°60' E 008°21'2 3.8
2018-Jun-15 00:30N 53°59' E 008°24'2 3.4
2018-Jun-15 00:00N 53°59' E 008°27'1 2.6
2018-Jun-14 23:30N 53°59' E 008°29'1 1.8
2018-Jun-14 23:00N 53°58' E 008°30'1 1.4
2018-Jun-14 22:30N 53°58' E 008°32'1 1.5
2018-Jun-14 22:00N 53°58' E 008°33'1 1.3
2018-Jun-14 21:30N 53°58' E 008°34'1 2.0
2018-Jun-14 21:00N 53°58' E 008°36'1 2.0
2018-Jun-14 20:30N 53°58' E 008°37'2 3.3
2018-Jun-14 20:00N 53°56' E 008°39'3 5.5
2018-Jun-14 19:30N 53°54' E 008°42'4 7.6
2018-Jun-14 19:00N 53°51' E 008°46'4 7.1
2018-Jun-14 18:30N 53°50' E 008°51'4 7.2
2018-Jun-14 18:00N 53°51' E 008°58'3 6.9
2018-Jun-14 17:30N 53°52' E 009°03'3 6.1
2018-Jun-14 17:00N 53°53' E 009°08'1 1.1
2018-Jun-14 16:30N 53°54' E 009°09'0 0.0
2018-Jun-14 16:00N 53°54' E 009°09'1 1.4
2018-Jun-14 15:30N 53°54' E 009°10'0 0.2
2018-Jun-14 15:00N 53°54' E 009°10'1 1.9
2018-Jun-14 14:30N 53°55' E 009°11'3 5.2
2018-Jun-14 14:00N 53°57' E 009°14'2 5.0
2018-Jun-14 13:30N 53°59' E 009°16'2 4.8
2018-Jun-14 13:00N 54°01' E 009°18'3 4.7
2018-Jun-14 12:23N 54°04' E 009°19'4 4.5
2018-Jun-14 11:34N 54°07' E 009°20'0 4.4
2018-Jun-14 11:31N 54°08' E 009°20'2 4.2
2018-Jun-14 11:00N 54°09' E 009°22'2 4.7
2018-Jun-14 10:30N 54°10' E 009°26'2 4.8
2018-Jun-14 10:00N 54°11' E 009°30'2 4.7
2018-Jun-14 09:31N 54°12' E 009°33'2 3.8
2018-Jun-14 09:01N 54°13' E 009°36'2 4.8
2018-Jun-14 08:30N 54°15' E 009°37'2 4.7
2018-Jun-14 08:00N 54°17' E 009°39'2 4.4
2018-Jun-14 07:30N 54°19' E 009°43'2 4.6
2018-Jun-14 06:59N 54°21' E 009°45'2 4.6
2018-Jun-14 06:29N 54°22' E 009°48'  
Track history (hours):
 
Tides and Currents Weather Stations Pressure Air Temp Water Temp Dewpoint Dewpoint Depression Visibility Wind Speed Wind Dir Waves Ship Positions

MTS Vanquish

Last reported at 2018-Jun-23 07:26 UTC. Time now 2018-Jun-23 10:22 UTC.
Position N 51°53' E 002°47'.

Length 29 m; draft 4.7 m.

Type: Towing. MMSI: 235103213.

Date/timePositionNaut miles runAvg speedWind from/ knotsBaromVisibWave heightAir tempDewpointWater temp
2018-Jun-23 07:26N 51°53' E 002°47'2 4.0
2018-Jun-23 06:54N 51°52' E 002°45'1 3.6
2018-Jun-23 06:29N 51°51' E 002°43'2 3.4
2018-Jun-23 06:00N 51°49' E 002°42'3 3.1
2018-Jun-23 05:09N 51°47' E 002°39'1 3.1
2018-Jun-23 04:59N 51°47' E 002°38'2 3.0
2018-Jun-23 04:27N 51°45' E 002°37'1 2.9
2018-Jun-23 04:00N 51°44' E 002°35'2 3.1
2018-Jun-23 03:29N 51°43' E 002°34'2 3.3
2018-Jun-23 03:00N 51°42' E 002°32'2 3.7
2018-Jun-23 02:21N 51°40' E 002°29'2 4.1
2018-Jun-23 01:58N 51°39' E 002°28'3 4.3
2018-Jun-23 01:23N 51°37' E 002°25'2 4.6
2018-Jun-23 01:00N 51°36' E 002°23'2 4.6
2018-Jun-23 00:30N 51°34' E 002°21'3 4.9
2018-Jun-22 23:57N 51°32' E 002°18'2 5.2
2018-Jun-22 23:28N 51°30' E 002°16'3 5.5
2018-Jun-22 23:00N 51°28' E 002°13'3 5.5
2018-Jun-22 22:30N 51°26' E 002°10'3 5.4
2018-Jun-22 22:00N 51°23' E 002°09'3 5.5
2018-Jun-22 21:30N 51°21' E 002°07'3 5.3
2018-Jun-22 21:00N 51°18' E 002°06'3 5.3
2018-Jun-22 20:30N 51°16' E 002°05'3 5.4
2018-Jun-22 20:00N 51°14' E 002°02'3 5.5
2018-Jun-22 19:30N 51°12' E 001°58'3 5.2
2018-Jun-22 19:00N 51°11' E 001°55'2 4.9
2018-Jun-22 18:30N 51°10' E 001°51'2 4.6
2018-Jun-22 18:00N 51°09' E 001°48'2 4.1
2018-Jun-22 17:30N 51°08' E 001°45'2 3.4
2018-Jun-22 17:00N 51°07' E 001°43'2 3.3
2018-Jun-22 16:30N 51°07' E 001°40'2 3.7
2018-Jun-22 16:00N 51°08' E 001°38'2 3.2
2018-Jun-22 15:30N 51°09' E 001°35'1 2.1
2018-Jun-22 15:00N 51°09' E 001°34'1 1.4
2018-Jun-22 14:30N 51°09' E 001°33'1 1.4
2018-Jun-22 14:00N 51°08' E 001°32'1 2.3
2018-Jun-22 13:30N 51°08' E 001°30'1 2.7
2018-Jun-22 13:00N 51°08' E 001°28'2 3.0
2018-Jun-22 12:30N 51°07' E 001°26'2 3.2
2018-Jun-22 12:00N 51°06' E 001°23'2 3.4
2018-Jun-22 11:30N 51°06' E 001°21'1 2.4
2018-Jun-22 11:00N 51°07' E 001°19'0 0.0
2018-Jun-22 10:23N 51°07' E 001°19'0 0.0
2018-Jun-22 09:59N 51°07' E 001°19'0 0.0
2018-Jun-22 09:29N 51°07' E 001°19'0 0.0
2018-Jun-22 08:59N 51°07' E 001°19'0 0.0
2018-Jun-22 08:29N 51°07' E 001°19'0 0.0
2018-Jun-22 07:59N 51°07' E 001°19'0 0.0
2018-Jun-22 07:29N 51°07' E 001°19'0 0.0
2018-Jun-22 06:55N 51°07' E 001°19'0 0.0
2018-Jun-22 06:25N 51°07' E 001°19'0 0.0
2018-Jun-22 05:58N 51°07' E 001°19'0 0.0
2018-Jun-22 05:25N 51°07' E 001°19'0 0.0
2018-Jun-22 04:55N 51°07' E 001°19'0 0.0
2018-Jun-22 04:28N 51°07' E 001°19'0 0.0
2018-Jun-22 03:52N 51°07' E 001°19'0 0.0
2018-Jun-22 03:28N 51°07' E 001°19'0 0.0
2018-Jun-22 02:55N 51°07' E 001°19'0 0.0
2018-Jun-22 02:25N 51°07' E 001°19'0 0.0
2018-Jun-22 01:55N 51°07' E 001°19'0 0.0
2018-Jun-22 01:19N 51°07' E 001°19'0 0.0
2018-Jun-22 00:55N 51°07' E 001°19'0 0.0
2018-Jun-22 00:25N 51°07' E 001°19'0 0.0
2018-Jun-21 23:49N 51°07' E 001°19'0 0.0
2018-Jun-21 23:19N 51°07' E 001°19'0 0.0
2018-Jun-21 22:58N 51°07' E 001°19'0 0.0
2018-Jun-21 22:28N 51°07' E 001°19'0 0.0
2018-Jun-21 21:55N 51°07' E 001°19'0 0.0
2018-Jun-21 21:19N 51°07' E 001°19'0 0.0
2018-Jun-21 20:49N 51°07' E 001°19'0 0.0
2018-Jun-21 20:25N 51°07' E 001°19'0 0.0
2018-Jun-21 19:55N 51°07' E 001°19'0 0.0
2018-Jun-21 19:25N 51°07' E 001°19'0 0.0
2018-Jun-21 18:55N 51°07' E 001°19'0 0.0
2018-Jun-21 18:25N 51°07' E 001°19'0 0.0
2018-Jun-21 17:55N 51°07' E 001°19'0 0.0
2018-Jun-21 17:25N 51°07' E 001°19'0 0.0
2018-Jun-21 16:49N 51°07' E 001°19'0 0.0
2018-Jun-21 16:25N 51°07' E 001°19'0 0.0
2018-Jun-21 15:58N 51°07' E 001°19'0 0.0
2018-Jun-21 15:25N 51°07' E 001°19'0 0.0
2018-Jun-21 14:37N 51°07' E 001°19'0 0.0
2018-Jun-21 14:28N 51°07' E 001°19'0 0.0
2018-Jun-21 13:58N 51°07' E 001°19'0 0.0
2018-Jun-21 13:25N 51°07' E 001°19'0 0.0
2018-Jun-21 12:58N 51°07' E 001°19'0 0.0
2018-Jun-21 12:25N 51°07' E 001°19'0 0.0
2018-Jun-21 11:55N 51°07' E 001°19'0 0.0
2018-Jun-21 11:19N 51°07' E 001°19'0 0.0
2018-Jun-21 10:58N 51°07' E 001°19'0 0.0
2018-Jun-21 10:28N 51°07' E 001°19'0 0.0
2018-Jun-21 09:49N 51°07' E 001°19'0 0.0
2018-Jun-21 09:19N 51°07' E 001°19'0 0.0
2018-Jun-21 08:43N 51°07' E 001°19'0 0.0
2018-Jun-21 08:25N 51°07' E 001°19'0 0.0
2018-Jun-21 07:58N 51°07' E 001°19'0 0.0
2018-Jun-21 07:25N 51°07' E 001°19'0 0.0
2018-Jun-21 06:49N 51°07' E 001°19'0 0.0
2018-Jun-21 06:25N 51°07' E 001°19'0 0.0
2018-Jun-21 05:43N 51°07' E 001°19'0 0.0
2018-Jun-21 05:25N 51°07' E 001°19'0 0.0
2018-Jun-21 04:55N 51°07' E 001°19'0 0.0
2018-Jun-21 04:28N 51°07' E 001°19'0 0.0
2018-Jun-21 03:40N 51°07' E 001°19'0 1.0
2018-Jun-21 03:25N 51°07' E 001°19'0 0.0
2018-Jun-21 02:58N 51°07' E 001°19'0 0.0
2018-Jun-21 02:28N 51°07' E 001°19'0 0.0
2018-Jun-21 01:55N 51°07' E 001°19'0 0.0
2018-Jun-21 01:28N 51°07' E 001°19'0 0.0
2018-Jun-21 00:55N 51°07' E 001°19'0 0.0
2018-Jun-21 00:28N 51°07' E 001°19'0 0.0
2018-Jun-20 23:49N 51°07' E 001°19'0 0.0
2018-Jun-20 23:25N 51°07' E 001°19'0 0.0
2018-Jun-20 22:55N 51°07' E 001°19'0 0.0
2018-Jun-20 22:25N 51°07' E 001°19'0 0.0
2018-Jun-20 21:49N 51°07' E 001°19'0 0.0
2018-Jun-20 21:23N 51°07' E 001°19'2 5.0
2018-Jun-20 20:56N 51°07' E 001°23'3 7.3
2018-Jun-20 20:30N 51°08' E 001°28'3 7.0
2018-Jun-20 20:00N 51°10' E 001°32'3 6.7
2018-Jun-20 19:30N 51°13' E 001°35'3 6.6
2018-Jun-20 19:00N 51°16' E 001°36'3 6.2
2018-Jun-20 18:30N 51°19' E 001°36'3 6.8
2018-Jun-20 18:00N 51°22' E 001°34'4 7.1
2018-Jun-20 17:30N 51°25' E 001°31'3 6.8
2018-Jun-20 17:00N 51°27' E 001°27'4 7.5
2018-Jun-20 16:30N 51°28' E 001°21'4 7.6
2018-Jun-20 16:00N 51°29' E 001°15'4 8.0
2018-Jun-20 15:30N 51°29' E 001°09'4 8.3
2018-Jun-20 15:00N 51°29' E 001°02'4 8.3
2018-Jun-20 14:30N 51°29' E 000°55'4 7.3
2018-Jun-20 14:00N 51°29' E 000°50'4 8.1
2018-Jun-20 13:30N 51°30' E 000°43'4 7.5
2018-Jun-20 13:00N 51°30' E 000°37'3 5.7
2018-Jun-20 12:30N 51°30' E 000°33'3 6.0
2018-Jun-20 12:00N 51°29' E 000°28'3 6.2
2018-Jun-20 11:31N 51°27' E 000°25'3 5.7
2018-Jun-20 11:00N 51°27' E 000°20'1 1.2
2018-Jun-20 10:30N 51°28' E 000°20'0 0.3
2018-Jun-20 10:00N 51°28' E 000°20'0 0.0
2018-Jun-20 09:30N 51°28' E 000°20'0 0.0
2018-Jun-20 09:00N 51°28' E 000°20'0 0.3
2018-Jun-20 08:30N 51°28' E 000°20'0 0.3
2018-Jun-20 08:00N 51°28' E 000°20'0 0.0
2018-Jun-20 07:31N 51°28' E 000°20'0 0.0
2018-Jun-20 07:00N 51°28' E 000°20'0 0.0
2018-Jun-20 06:30N 51°28' E 000°20'0 0.0
2018-Jun-20 06:00N 51°28' E 000°20'0 0.0
2018-Jun-20 05:30N 51°28' E 000°20'0 0.0
2018-Jun-20 05:00N 51°28' E 000°20'0 0.1
2018-Jun-20 04:30N 51°28' E 000°20'0 0.0
2018-Jun-20 04:00N 51°28' E 000°20'0 0.0
2018-Jun-20 03:30N 51°28' E 000°20'0 0.0
2018-Jun-20 03:00N 51°28' E 000°20'0 0.6
2018-Jun-20 02:30N 51°28' E 000°21'0 0.5
2018-Jun-20 02:00N 51°27' E 000°21'0 0.0
2018-Jun-20 01:31N 51°27' E 000°21'0 0.4
2018-Jun-20 01:00N 51°27' E 000°20'1 1.3
2018-Jun-20 00:30N 51°27' E 000°21'0 1.0
2018-Jun-20 00:00N 51°27' E 000°22'0 0.0
2018-Jun-19 23:30N 51°27' E 000°22'0 0.0
2018-Jun-19 23:00N 51°27' E 000°22'0 0.0
2018-Jun-19 22:30N 51°27' E 000°22'0 0.0
2018-Jun-19 22:00N 51°27' E 000°22'0 0.0
2018-Jun-19 21:30N 51°27' E 000°22'0 0.0
2018-Jun-19 21:01N 51°27' E 000°22'0 0.0
2018-Jun-19 20:30N 51°27' E 000°22'0 0.0
2018-Jun-19 20:00N 51°27' E 000°22'0 0.2
2018-Jun-19 19:30N 51°27' E 000°22'0 0.8
2018-Jun-19 19:00N 51°27' E 000°23'0 1.0
2018-Jun-19 18:30N 51°27' E 000°23'1 1.2
2018-Jun-19 18:00N 51°27' E 000°24'1 2.5
2018-Jun-19 17:31N 51°27' E 000°26'2 3.1
2018-Jun-19 17:00N 51°29' E 000°27'2 3.3
2018-Jun-19 16:30N 51°30' E 000°29'2 4.0
2018-Jun-19 16:00N 51°30' E 000°32'2 4.7
2018-Jun-19 15:30N 51°30' E 000°36'2 4.7
2018-Jun-19 15:00N 51°30' E 000°40'2 4.9
2018-Jun-19 14:30N 51°30' E 000°44'3 5.2
2018-Jun-19 14:00N 51°30' E 000°48'1 2.1
2018-Jun-19 13:30N 51°30' E 000°50'0 0.1
2018-Jun-19 13:00N 51°30' E 000°50'0 0.1
2018-Jun-19 12:30N 51°30' E 000°50'0 0.2
2018-Jun-19 12:00N 51°30' E 000°50'0 0.2
2018-Jun-19 11:30N 51°30' E 000°50'1 3.0
2018-Jun-19 11:01N 51°30' E 000°52'1 2.5
2018-Jun-19 10:30N 51°29' E 000°54'1 2.9
2018-Jun-19 10:00N 51°29' E 000°56'1 2.5
2018-Jun-19 09:30N 51°29' E 000°58'1 1.8
2018-Jun-19 09:00N 51°29' E 000°60'1 1.8
2018-Jun-19 08:30N 51°29' E 001°01'1 1.8
2018-Jun-19 08:00N 51°30' E 001°03'1 1.9
2018-Jun-19 07:30N 51°30' E 001°04'1 2.0
2018-Jun-19 07:00N 51°30' E 001°06'1 1.7
2018-Jun-19 06:30N 51°30' E 001°07'1 1.9
2018-Jun-19 06:00N 51°29' E 001°09'1 2.1
2018-Jun-19 05:30N 51°29' E 001°10'1 2.8
2018-Jun-19 05:00N 51°29' E 001°13'2 3.7
2018-Jun-19 04:30N 51°29' E 001°16'2 4.0
2018-Jun-19 04:00N 51°29' E 001°19'2 4.8
2018-Jun-19 03:31N 51°28' E 001°23'2 4.1
2018-Jun-19 03:00N 51°28' E 001°26'2 4.1
2018-Jun-19 02:30N 51°29' E 001°29'2 3.2
2018-Jun-19 02:00N 51°28' E 001°31'1 2.7
2018-Jun-19 01:30N 51°29' E 001°33'2 4.0
2018-Jun-19 01:00N 51°30' E 001°35'2 4.5
2018-Jun-19 00:30N 51°31' E 001°38'2 4.6
2018-Jun-19 00:00N 51°33' E 001°40'2 3.9
2018-Jun-18 23:30N 51°35' E 001°42'1 1.1
2018-Jun-18 23:00N 51°35' E 001°42'1 1.4
2018-Jun-18 22:30N 51°34' E 001°42'0 0.7
2018-Jun-18 22:00N 51°34' E 001°42'1 1.5
2018-Jun-18 21:30N 51°35' E 001°43'1 1.1
2018-Jun-18 21:01N 51°35' E 001°44'0 0.7
2018-Jun-18 20:30N 51°36' E 001°44'0 0.5
2018-Jun-18 20:01N 51°35' E 001°44'1 1.6
2018-Jun-18 19:30N 51°35' E 001°45'1 2.3
2018-Jun-18 19:00N 51°34' E 001°45'2 3.1
2018-Jun-18 18:31N 51°32' E 001°46'2 3.4
2018-Jun-18 18:00N 51°30' E 001°46'2 3.4
2018-Jun-18 17:30N 51°29' E 001°46'2 3.6
2018-Jun-18 17:00N 51°27' E 001°45'2 3.8
2018-Jun-18 16:30N 51°25' E 001°45'2 4.1
2018-Jun-18 16:00N 51°23' E 001°43'2 3.7
2018-Jun-18 15:31N 51°22' E 001°42'1 1.8
2018-Jun-18 15:00N 51°21' E 001°41'0 0.7
2018-Jun-18 14:30N 51°21' E 001°41'1 1.3
2018-Jun-18 14:01N 51°22' E 001°42'1 1.9
2018-Jun-18 13:30N 51°23' E 001°42'1 2.6
2018-Jun-18 13:00N 51°24' E 001°43'1 2.6
2018-Jun-18 12:30N 51°25' E 001°43'2 3.5
2018-Jun-18 12:00N 51°27' E 001°44'2 4.0
2018-Jun-18 11:30N 51°29' E 001°45'2 3.8
2018-Jun-18 11:00N 51°30' E 001°47'2 3.3
2018-Jun-18 10:30N 51°32' E 001°48'1 2.7
2018-Jun-18 10:00N 51°33' E 001°50'2 3.5
2018-Jun-18 09:30N 51°34' E 001°52'2 3.2
2018-Jun-18 09:00N 51°35' E 001°54'2 2.9
2018-Jun-18 08:29N 51°35' E 001°56'1 2.8
2018-Jun-18 07:59N 51°36' E 001°58'1 2.4
2018-Jun-18 07:30N 51°36' E 002°00'1 2.2
2018-Jun-18 06:57N 51°37' E 002°02'1 2.0
2018-Jun-18 06:28N 51°38' E 002°03'1 1.7
2018-Jun-18 05:57N 51°38' E 002°04'1 1.3
2018-Jun-18 05:29N 51°39' E 002°04'1 1.1
2018-Jun-18 04:59N 51°39' E 002°05'1 1.0
2018-Jun-18 04:29N 51°40' E 002°06'1 1.1
2018-Jun-18 04:00N 51°40' E 002°06'1 1.4
2018-Jun-18 03:29N 51°40' E 002°07'1 1.7
2018-Jun-18 02:59N 51°41' E 002°08'1 2.0
2018-Jun-18 02:30N 51°42' E 002°09'1 2.3
2018-Jun-18 01:58N 51°42' E 002°11'1 2.8
2018-Jun-18 01:29N 51°43' E 002°13'2 3.5
2018-Jun-18 01:00N 51°44' E 002°15'2 4.1
2018-Jun-18 00:25N 51°46' E 002°18'2 4.4
2018-Jun-17 23:52N 51°48' E 002°21'15 3.4
2018-Jun-17 19:31N 51°58' E 002°38'39 2.9
2018-Jun-17 06:04N 52°28' E 003°19'0 2.2
2018-Jun-17 05:59N 52°28' E 003°19'1 2.0
2018-Jun-17 05:29N 52°29' E 003°20'1 1.8
2018-Jun-17 04:58N 52°30' E 003°21'1 1.6
2018-Jun-17 04:28N 52°30' E 003°22'1 1.7
2018-Jun-17 03:49N 52°31' E 003°23'2 2.0
2018-Jun-17 03:01N 52°32' E 003°24'1 2.6
2018-Jun-17 02:44N 52°33' E 003°25'1 2.9
2018-Jun-17 02:17N 52°34' E 003°26'2 3.5
2018-Jun-17 01:40N 52°36' E 003°29'9 4.1
2018-Jun-16 23:29N 52°43' E 003°37'6 4.1
2018-Jun-16 21:54N 52°48' E 003°45'13 3.0
2018-Jun-16 17:34N 52°57' E 003°60'1 2.3
2018-Jun-16 17:04N 52°58' E 004°01'0 2.2
2018-Jun-16 16:56N 52°58' E 004°01'1 2.3
2018-Jun-16 16:27N 52°59' E 004°03'1 2.6
2018-Jun-16 16:00N 52°60' E 004°04'2 3.5
2018-Jun-16 15:29N 53°01' E 004°07'2 4.0
2018-Jun-16 15:00N 53°02' E 004°09'2 4.5
2018-Jun-16 14:30N 53°04' E 004°12'3 4.8
2018-Jun-16 13:57N 53°05' E 004°15'2 5.0
2018-Jun-16 13:30N 53°07' E 004°18'3 5.1
2018-Jun-16 13:00N 53°09' E 004°21'21 4.5
2018-Jun-16 08:16N 53°27' E 004°37'1 3.6
2018-Jun-16 07:57N 53°28' E 004°39'2 3.4
2018-Jun-16 07:31N 53°29' E 004°41'2 3.4
2018-Jun-16 07:00N 53°29' E 004°44'2 3.4
2018-Jun-16 06:22N 53°30' E 004°47'2 3.4
2018-Jun-16 05:50N 53°31' E 004°50'1 3.5
2018-Jun-16 05:30N 53°31' E 004°52'2 3.9
2018-Jun-16 05:00N 53°32' E 004°55'2 4.3
2018-Jun-16 04:30N 53°32' E 004°58'3 5.0
2018-Jun-16 04:00N 53°33' E 005°02'3 5.5
2018-Jun-16 03:30N 53°34' E 005°07'7 5.9
2018-Jun-16 02:15N 53°36' E 005°19'2 5.7
2018-Jun-16 01:57N 53°37' E 005°21'4 5.6
2018-Jun-16 01:18N 53°38' E 005°27'2 5.3
2018-Jun-16 00:53N 53°39' E 005°30'2 5.2
2018-Jun-16 00:30N 53°40' E 005°34'3 5.0
2018-Jun-15 23:54N 53°41' E 005°38'67 4.1
2018-Jun-15 07:24N 53°59' E 007°27'2 4.0
2018-Jun-15 07:00N 53°59' E 007°30'2 4.3
2018-Jun-15 06:29N 54°00' E 007°34'2 5.0
2018-Jun-15 06:00N 54°01' E 007°38'3 5.3
2018-Jun-15 05:30N 54°01' E 007°42'3 5.4
2018-Jun-15 05:00N 54°01' E 007°47'3 5.4
2018-Jun-15 04:27N 54°01' E 007°52'2 5.3
2018-Jun-15 04:00N 54°01' E 007°56'3 5.3
2018-Jun-15 03:30N 54°01' E 008°00'3 5.5
2018-Jun-15 03:00N 54°01' E 008°05'3 5.4
2018-Jun-15 02:27N 54°00' E 008°10'2 5.3
2018-Jun-15 02:00N 54°00' E 008°14'2 3.9
2018-Jun-15 01:30N 54°00' E 008°17'2 4.2
2018-Jun-15 01:00N 53°60' E 008°21'2 3.8
2018-Jun-15 00:30N 53°59' E 008°24'2 3.4
2018-Jun-15 00:00N 53°59' E 008°27'1 2.6
2018-Jun-14 23:30N 53°59' E 008°29'1 1.8
2018-Jun-14 23:00N 53°58' E 008°30'1 1.4
2018-Jun-14 22:30N 53°58' E 008°32'1 1.5
2018-Jun-14 22:00N 53°58' E 008°33'1 1.3
2018-Jun-14 21:30N 53°58' E 008°34'1 2.0
2018-Jun-14 21:00N 53°58' E 008°36'1 2.0
2018-Jun-14 20:30N 53°58' E 008°37'2 3.3
2018-Jun-14 20:00N 53°56' E 008°39'3 5.5
2018-Jun-14 19:30N 53°54' E 008°42'4 7.6
2018-Jun-14 19:00N 53°51' E 008°46'4 7.1
2018-Jun-14 18:30N 53°50' E 008°51'4 7.2
2018-Jun-14 18:00N 53°51' E 008°58'3 6.9
2018-Jun-14 17:30N 53°52' E 009°03'3 6.1
2018-Jun-14 17:00N 53°53' E 009°08'1 1.1
2018-Jun-14 16:30N 53°54' E 009°09'0 0.0
2018-Jun-14 16:00N 53°54' E 009°09'1 1.4
2018-Jun-14 15:30N 53°54' E 009°10'0 0.2
2018-Jun-14 15:00N 53°54' E 009°10'1 1.9
2018-Jun-14 14:30N 53°55' E 009°11'3 5.2
2018-Jun-14 14:00N 53°57' E 009°14'2 5.0
2018-Jun-14 13:30N 53°59' E 009°16'2 4.8
2018-Jun-14 13:00N 54°01' E 009°18'3 4.7
2018-Jun-14 12:23N 54°04' E 009°19'4 4.5
2018-Jun-14 11:34N 54°07' E 009°20'0 4.4
2018-Jun-14 11:31N 54°08' E 009°20'2 4.2
2018-Jun-14 11:00N 54°09' E 009°22'2 4.7
2018-Jun-14 10:30N 54°10' E 009°26'2 4.8
2018-Jun-14 10:00N 54°11' E 009°30'2 4.7
2018-Jun-14 09:31N 54°12' E 009°33'2 3.8
2018-Jun-14 09:01N 54°13' E 009°36'2 4.8
2018-Jun-14 08:30N 54°15' E 009°37'2 4.7
2018-Jun-14 08:00N 54°17' E 009°39'2 4.4
2018-Jun-14 07:30N 54°19' E 009°43'2 4.6
2018-Jun-14 06:59N 54°21' E 009°45'2 4.6
2018-Jun-14 06:29N 54°22' E 009°48'  

Dump ship's entire track history